createdAt,value
2022-11-07T00:04:38.694Z,25.10
2022-11-07T00:14:42.229Z,21.00
2022-11-07T00:24:45.708Z,21.60
2022-11-07T00:34:49.144Z,20.10
2022-11-07T00:44:52.590Z,20.10
2022-11-07T00:54:55.841Z,18.50
2022-11-07T01:05:11.398Z,17.00
2022-11-07T01:15:15.194Z,16.50
2022-11-07T01:25:18.628Z,14.70
2022-11-07T01:35:22.264Z,15.90
2022-11-07T01:45:28.299Z,15.40
2022-11-07T01:55:35.131Z,14.50
2022-11-07T02:05:43.648Z,16.90
2022-11-07T02:15:47.628Z,17.10
2022-11-07T02:25:51.782Z,15.60
2022-11-07T02:35:55.770Z,15.80
2022-11-07T02:46:02.714Z,17.40
2022-11-07T02:56:08.151Z,17.50
2022-11-07T03:06:13.449Z,17.10
2022-11-07T03:16:18.511Z,17.60
2022-11-07T03:26:21.198Z,17.10
2022-11-07T03:36:24.747Z,20.10
2022-11-07T03:46:28.687Z,19.80
2022-11-07T03:56:32.197Z,19.00
2022-11-07T04:06:36.132Z,18.60
2022-11-07T04:16:58.238Z,22.30
2022-11-07T04:27:19.988Z,24.90
2022-11-07T04:37:23.486Z,21.40
2022-11-07T04:47:26.982Z,20.10
2022-11-07T04:57:30.456Z,22.30
2022-11-07T05:07:33.903Z,21.20
2022-11-07T05:17:37.382Z,26.30
2022-11-07T05:27:40.873Z,28.30
2022-11-07T05:37:44.137Z,24.70
2022-11-07T05:47:48.211Z,26.80
2022-11-07T05:57:52.076Z,30.20
2022-11-07T06:07:55.115Z,25.80
2022-11-07T06:17:59.097Z,32.40
2022-11-07T06:28:05.061Z,19.90
2022-11-07T06:38:10.881Z,18.60
2022-11-07T06:48:14.567Z,17.30
2022-11-07T06:58:17.736Z,16.80
2022-11-07T07:08:21.267Z,15.70
2022-11-07T07:18:26.153Z,15.60
2022-11-07T07:28:29.700Z,15.60
2022-11-07T07:38:33.526Z,13.80
2022-11-07T07:48:37.072Z,14.90
2022-11-07T07:58:40.568Z,11.80
2022-11-07T08:08:43.992Z,11.50
2022-11-07T08:18:47.510Z,11.60
2022-11-07T08:28:53.240Z,12.40
2022-11-07T08:39:11.267Z,11.80
2022-11-07T08:49:14.876Z,9.90
2022-11-07T08:59:18.489Z,10.70
2022-11-07T09:09:21.653Z,10.90
2022-11-07T09:19:25.237Z,10.30
2022-11-07T09:29:28.741Z,11.30
2022-11-07T09:39:32.646Z,11.30
2022-11-07T09:49:38.954Z,9.40
2022-11-07T09:59:45.143Z,9.00
2022-11-07T10:09:48.072Z,11.10
2022-11-07T10:20:01.614Z,11.70
2022-11-07T10:30:16.440Z,10.50
2022-11-07T10:40:21.134Z,9.90
2022-11-07T11:00:29.128Z,8.60
2022-11-07T11:10:38.533Z,8.90
2022-11-07T11:20:46.150Z,7.70
2022-11-07T11:30:48.143Z,7.60
2022-11-07T11:40:59.272Z,6.60
2022-11-07T11:51:06.802Z,7.10
2022-11-07T12:01:09.935Z,8.80
2022-11-07T12:11:12.831Z,8.00
2022-11-07T12:21:20.131Z,7.20
2022-11-07T12:31:35.236Z,7.80
2022-11-07T12:41:39.312Z,7.60
2022-11-07T12:51:47.057Z,8.70
2022-11-07T13:01:55.650Z,5.80
2022-11-07T13:11:58.928Z,6.20
2022-11-07T13:22:03.818Z,5.10
2022-11-07T13:32:09.019Z,5.30
2022-11-07T13:42:13.476Z,6.50
2022-11-07T13:52:19.559Z,6.40
2022-11-07T14:02:25.019Z,7.70
2022-11-07T14:12:28.843Z,7.80
2022-11-07T14:22:32.367Z,8.80
2022-11-07T14:32:36.156Z,7.00
2022-11-07T14:42:43.374Z,6.00
2022-11-07T14:52:49.229Z,6.10
2022-11-07T15:02:55.607Z,6.50
2022-11-07T15:13:00.542Z,7.40
2022-11-07T15:23:06.447Z,10.80
2022-11-07T15:33:10.146Z,15.00
2022-11-07T15:43:13.952Z,15.80
2022-11-07T15:53:18.507Z,18.30
2022-11-07T16:03:25.569Z,23.00
2022-11-07T16:13:29.828Z,21.70
2022-11-07T16:23:33.627Z,22.90
2022-11-07T16:33:37.071Z,20.60
2022-11-07T16:43:40.941Z,30.20
2022-11-07T16:53:45.381Z,28.30
2022-11-07T17:03:49.313Z,27.10
2022-11-07T17:13:53.312Z,32.60
2022-11-07T17:23:59.336Z,36.80
2022-11-07T17:34:05.989Z,36.50
2022-11-07T17:44:10.835Z,47.40
2022-11-07T17:54:16.011Z,55.40
